Haro, Spain
Current Conditions -  °F | °C
As of 9:00 PM on Tuesday 21 Oct 2014 (Local Time) from LEVT Reporting Station
Scattered Clouds Scattered Clouds  
Wind Chill: 63°   Ceiling: Unl
Heat Index: 63°   Visibility: 6mi
Dew Point: 55°   Wind: 12mph
Humidity: 77%   Direction: 330°NNW
Pressure: 30.39"   Gusts: NA
Location:  42.58°N, 2.85°W
Report Text: LEVT 211900Z 33010KT 290V360 9999 SCT030 17/13 Q1029
Loading
Personal Weather Stations






























Interactive Weather Map New forecast layout! Learn more

10-Day Weather Forecast

Advertisements
Track Severe Weather on mobile